Time;durP1;ratioP1;P1;durP2;ratioP2;P2;SDS_P1;SDS_P2;PMS_P1;PMS_P2;Temp;Humidity;BMP_temperature;BMP_pressure;BME280_temperature;BME280_humidity;BME280_pressure;Samples;Min_cycle;Max_cycle;Signal;HPM_P1;HPM_P2
2023/06/29 00:01:59;;;;;;;20.60;14.35;;;;;;;-140.66;100.00;55571.53;5137361;27;20031;-71
2023/06/29 00:04:45;;;;;;;20.95;14.80;;;;;;;-140.66;100.00;55571.53;5137386;27;20103;-72
2023/06/29 00:07:33;;;;;;;21.02;14.95;;;;;;;-140.66;100.00;55571.53;5137135;27;20099;-71
2023/06/29 00:10:18;;;;;;;19.10;14.32;;;;;;;-140.66;100.00;55571.53;5137230;27;20502;-72
2023/06/29 00:13:04;;;;;;;21.55;14.50;;;;;;;-140.66;100.00;55571.53;5137291;27;20042;-71
2023/06/29 00:15:50;;;;;;;24.00;15.27;;;;;;;-140.66;100.00;55571.53;5137077;27;20023;-72
2023/06/29 00:18:35;;;;;;;20.08;13.52;;;;;;;-140.66;100.00;55571.53;5137167;27;20050;-71
2023/06/29 00:21:21;;;;;;;20.88;14.10;;;;;;;-140.66;100.00;55571.53;5137022;27;20483;-71
2023/06/29 00:24:10;;;;;;;17.33;13.52;;;;;;;-140.66;100.00;55571.53;5137780;27;20035;-71
2023/06/29 00:26:56;;;;;;;20.55;13.82;;;;;;;-140.66;100.00;55571.53;5138554;27;20023;-71
2023/06/29 00:29:43;;;;;;;17.08;12.82;;;;;;;-140.66;100.00;55571.53;5138887;27;20346;-73
2023/06/29 00:32:28;;;;;;;16.58;11.88;;;;;;;-140.66;100.00;55571.53;5137434;27;20034;-72
2023/06/29 00:35:14;;;;;;;20.63;13.00;;;;;;;-140.66;100.00;55571.53;5123624;27;20151;-72
2023/06/29 00:38:00;;;;;;;21.52;12.73;;;;;;;-140.66;100.00;55571.53;5122999;27;20037;-72
2023/06/29 00:40:48;;;;;;;19.00;12.73;;;;;;;-140.66;100.00;55571.53;5137553;27;20099;-72
2023/06/29 00:43:33;;;;;;;25.15;13.27;;;;;;;-140.66;100.00;55571.53;5135824;27;20023;-72
2023/06/29 00:46:20;;;;;;;20.25;12.82;;;;;;;-140.66;100.00;55571.53;5136958;27;20487;-72
2023/06/29 00:49:05;;;;;;;18.48;11.80;;;;;;;-140.66;100.00;55571.53;5136367;27;20433;-72
2023/06/29 00:51:53;;;;;;;20.92;12.88;;;;;;;-140.66;100.00;55571.53;5136664;27;20090;-72
2023/06/29 00:54:39;;;;;;;19.08;12.10;;;;;;;-140.66;100.00;55571.53;5136429;27;20059;-71
2023/06/29 00:57:25;;;;;;;17.48;12.15;;;;;;;-140.66;100.00;55571.53;5136434;27;20027;-72
2023/06/29 01:00:11;;;;;;;16.15;11.18;;;;;;;-140.66;100.00;55571.53;5136027;27;20074;-72
2023/06/29 01:02:57;;;;;;;21.45;12.73;;;;;;;-140.66;100.00;55571.53;5136648;27;20379;-72
2023/06/29 01:05:45;;;;;;;16.88;11.50;;;;;;;-140.66;100.00;55571.53;5136344;27;20037;-72
2023/06/29 01:08:44;;;;;;;19.00;12.52;;;;;;;-140.66;100.00;55571.53;5135986;27;20127;-72
2023/06/29 01:11:32;;;;;;;24.23;12.38;;;;;;;-140.66;100.00;55571.53;5121050;27;20361;-72
2023/06/29 01:14:20;;;;;;;16.05;12.20;;;;;;;-140.66;100.00;55571.53;5136383;27;20437;-72
2023/06/29 01:17:12;;;;;;;19.75;11.98;;;;;;;-140.66;100.00;55571.53;5136413;27;20424;-72
2023/06/29 01:19:58;;;;;;;16.08;11.63;;;;;;;-140.66;100.00;55571.53;5120569;27;20043;-72
2023/06/29 01:22:55;;;;;;;17.58;12.13;;;;;;;-140.66;100.00;55571.53;5136325;27;20030;-72
2023/06/29 01:25:42;;;;;;;19.70;12.27;;;;;;;-140.66;100.00;55571.53;5135867;27;20038;-72
2023/06/29 01:28:31;;;;;;;18.55;13.02;;;;;;;-140.66;100.00;55571.53;5136506;27;20034;-71
2023/06/29 01:31:17;;;;;;;18.90;12.43;;;;;;;-140.66;100.00;55571.53;5135852;27;20092;-71
2023/06/29 01:34:03;;;;;;;17.27;11.90;;;;;;;-140.66;100.00;55571.53;5121318;27;20023;-71
2023/06/29 01:36:51;;;;;;;16.83;12.23;;;;;;;-140.66;100.00;55571.53;5135579;27;20023;-72
2023/06/29 01:39:44;;;;;;;20.50;12.10;;;;;;;-140.66;100.00;55571.53;5135460;27;20019;-72
2023/06/29 01:42:32;;;;;;;20.17;12.70;;;;;;;-140.66;100.00;55571.53;5127396;27;20031;-72
2023/06/29 01:45:20;;;;;;;20.88;12.35;;;;;;;-140.66;100.00;55571.53;5135612;27;20080;-71
2023/06/29 01:48:06;;;;;;;20.92;11.93;;;;;;;-140.66;100.00;55571.53;5135499;27;20027;-71
2023/06/29 01:50:52;;;;;;;19.10;11.75;;;;;;;-140.66;100.00;55571.53;5147437;27;20027;-72
2023/06/29 01:53:38;;;;;;;24.73;12.35;;;;;;;-140.66;100.00;55571.53;5141913;27;20102;-71
2023/06/29 01:56:23;;;;;;;18.42;12.60;;;;;;;-140.66;100.00;55571.53;5113846;27;20030;-71
2023/06/29 01:59:10;;;;;;;18.85;12.90;;;;;;;-140.66;100.00;55571.53;5120561;27;20019;-72
2023/06/29 02:01:56;;;;;;;23.15;12.75;;;;;;;-140.66;100.00;55571.53;5120853;27;20030;-71
2023/06/29 02:04:42;;;;;;;19.15;12.07;;;;;;;-140.66;100.00;55571.53;5135379;27;20022;-72
2023/06/29 02:07:27;;;;;;;19.35;12.00;;;;;;;-140.66;100.00;55571.53;5134596;27;20429;-72
2023/06/29 02:10:13;;;;;;;25.50;13.38;;;;;;;-140.66;100.00;55571.53;5134845;27;20023;-72
2023/06/29 02:12:59;;;;;;;20.02;12.38;;;;;;;-140.66;100.00;55571.53;5135051;27;20026;-71
2023/06/29 02:15:45;;;;;;;17.25;12.25;;;;;;;-140.66;100.00;55571.53;5135168;27;20027;-72
2023/06/29 02:18:31;;;;;;;26.50;12.48;;;;;;;-140.66;100.00;55571.53;5151670;27;20050;-71
2023/06/29 02:21:16;;;;;;;20.20;12.05;;;;;;;-140.66;100.00;55571.53;5142248;27;20055;-71
2023/06/29 02:24:02;;;;;;;21.38;12.82;;;;;;;-140.66;100.00;55571.53;5146623;27;20031;-72
2023/06/29 02:26:48;;;;;;;19.55;12.35;;;;;;;-140.66;100.00;55571.53;5137105;27;20348;-72
2023/06/29 02:29:34;;;;;;;18.73;12.88;;;;;;;-140.66;100.00;55571.53;5134887;27;20508;-72
2023/06/29 02:32:19;;;;;;;17.42;11.68;;;;;;;-140.66;100.00;55571.53;5135581;27;20437;-71
2023/06/29 02:35:06;;;;;;;18.75;11.60;;;;;;;-140.66;100.00;55571.53;5134875;27;20046;-72
2023/06/29 02:37:51;;;;;;;19.48;12.10;;;;;;;-140.66;100.00;55571.53;5134223;27;20019;-72
2023/06/29 02:40:37;;;;;;;16.45;12.32;;;;;;;-140.66;100.00;55571.53;5134893;27;20024;-72
2023/06/29 02:43:23;;;;;;;18.83;12.77;;;;;;;-140.66;100.00;55571.53;5134899;27;20031;-72
2023/06/29 02:46:08;;;;;;;17.33;12.80;;;;;;;-140.66;100.00;55571.53;5134722;27;20129;-71
2023/06/29 02:48:54;;;;;;;19.52;12.85;;;;;;;-140.66;100.00;55571.53;5134776;28;20421;-72
2023/06/29 02:51:40;;;;;;;18.42;12.93;;;;;;;-140.66;100.00;55571.53;5134329;28;20031;-71
2023/06/29 02:54:25;;;;;;;21.20;12.18;;;;;;;-140.66;100.00;55571.53;5134645;28;20055;-72
2023/06/29 02:57:11;;;;;;;20.02;11.75;;;;;;;-140.66;100.00;55571.53;5134720;28;20038;-72
2023/06/29 02:59:57;;;;;;;21.55;12.13;;;;;;;-140.66;100.00;55571.53;5119491;28;20026;-72
2023/06/29 03:02:43;;;;;;;18.88;12.48;;;;;;;-140.66;100.00;55571.53;5134094;28;20480;-72
2023/06/29 03:05:28;;;;;;;17.05;12.57;;;;;;;-140.66;100.00;55571.53;5134977;27;20118;-72
2023/06/29 03:08:14;;;;;;;14.77;11.52;;;;;;;-140.66;100.00;55571.53;5138397;27;20019;-72
2023/06/29 03:11:00;;;;;;;20.10;11.82;;;;;;;-140.66;100.00;55571.53;5138647;27;20041;-71
2023/06/29 03:13:46;;;;;;;15.48;11.57;;;;;;;-140.66;100.00;55571.53;5123733;27;20106;-72
2023/06/29 03:16:32;;;;;;;18.92;13.15;;;;;;;-140.66;100.00;55571.53;5138543;27;20031;-71
2023/06/29 03:19:17;;;;;;;17.13;11.98;;;;;;;-140.66;100.00;55571.53;5138239;27;20043;-71
2023/06/29 03:22:03;;;;;;;15.52;11.98;;;;;;;-140.66;100.00;55571.53;5138183;27;20015;-72
2023/06/29 03:24:49;;;;;;;19.92;12.32;;;;;;;-140.66;100.00;55571.53;5123022;27;20106;-72
2023/06/29 03:27:35;;;;;;;15.88;11.38;;;;;;;-140.66;100.00;55571.53;5138130;27;20030;-72
2023/06/29 03:30:21;;;;;;;17.58;12.18;;;;;;;-140.66;100.00;55571.53;5137844;27;20410;-71
2023/06/29 03:33:06;;;;;;;16.92;11.73;;;;;;;-140.66;100.00;55571.53;5123588;27;20023;-71
2023/06/29 03:35:52;;;;;;;18.73;11.45;;;;;;;-140.66;100.00;55571.53;5138127;27;20027;-72
2023/06/29 03:38:38;;;;;;;18.20;12.48;;;;;;;-140.66;100.00;55571.53;5138430;27;20027;-72
2023/06/29 03:41:24;;;;;;;18.45;11.45;;;;;;;-140.66;100.00;55571.53;5137833;27;20066;-72
2023/06/29 03:44:09;;;;;;;18.95;11.95;;;;;;;-140.66;100.00;55571.53;5138087;27;20334;-72
2023/06/29 03:46:55;;;;;;;16.77;11.95;;;;;;;-140.66;100.00;55571.53;5124398;27;20038;-72
2023/06/29 03:49:41;;;;;;;17.60;11.93;;;;;;;-140.66;100.00;55571.53;5137855;27;20027;-72
2023/06/29 03:52:26;;;;;;;19.70;11.48;;;;;;;-140.66;100.00;55571.53;5137745;27;20023;-72
2023/06/29 03:55:12;;;;;;;16.50;11.85;;;;;;;-140.66;100.00;55571.53;5137564;27;20025;-72
2023/06/29 03:57:59;;;;;;;14.30;11.15;;;;;;;-140.66;100.00;55571.53;5137512;27;20030;-72
2023/06/29 04:00:45;;;;;;;17.63;11.68;;;;;;;-140.66;100.00;55571.53;5137567;27;20341;-72
2023/06/29 04:03:31;;;;;;;15.65;10.82;;;;;;;-140.66;100.00;55571.53;5122911;27;20425;-71
2023/06/29 04:06:16;;;;;;;17.05;11.05;;;;;;;-140.66;100.00;55571.53;5137632;27;20023;-71
2023/06/29 04:09:02;;;;;;;16.88;11.40;;;;;;;-140.66;100.00;55571.53;5122041;27;20040;-71
2023/06/29 04:11:48;;;;;;;14.77;11.30;;;;;;;-140.66;100.00;55571.53;5122179;27;20456;-72
2023/06/29 04:14:33;;;;;;;14.93;10.90;;;;;;;-140.66;100.00;55571.53;5136891;27;20031;-72
2023/06/29 04:17:19;;;;;;;17.92;11.68;;;;;;;-140.66;100.00;55571.53;5136926;27;20031;-71
2023/06/29 04:20:05;;;;;;;18.83;11.82;;;;;;;-140.66;100.00;55571.53;5136798;27;20126;-71
2023/06/29 04:22:51;;;;;;;16.98;11.40;;;;;;;-140.66;100.00;55571.53;5137797;27;20485;-72
2023/06/29 04:25:37;;;;;;;20.70;12.18;;;;;;;-140.66;100.00;55571.53;5137104;27;20023;-74
2023/06/29 04:28:22;;;;;;;17.58;12.00;;;;;;;-140.66;100.00;55571.53;5121535;27;20360;-71
2023/06/29 04:31:08;;;;;;;20.58;12.90;;;;;;;-140.66;100.00;55571.53;5136600;27;20023;-73
2023/06/29 04:33:55;;;;;;;19.05;11.93;;;;;;;-140.66;100.00;55571.53;5136922;27;20023;-72
2023/06/29 04:36:40;;;;;;;18.55;12.40;;;;;;;-140.66;100.00;55571.53;5137133;27;20136;-73
2023/06/29 04:39:27;;;;;;;21.70;13.35;;;;;;;-140.66;100.00;55571.53;5136884;27;20071;-72
2023/06/29 04:42:13;;;;;;;20.05;12.23;;;;;;;-140.66;100.00;55571.53;5136967;27;20101;-73
2023/06/29 04:45:00;;;;;;;20.55;13.07;;;;;;;-140.66;100.00;55571.53;5137134;27;20376;-72
2023/06/29 04:47:49;;;;;;;21.25;12.88;;;;;;;-140.66;100.00;55571.53;5136475;27;20448;-72
2023/06/29 04:50:35;;;;;;;22.60;13.02;;;;;;;-140.66;100.00;55571.53;5136526;27;20031;-70
2023/06/29 04:53:21;;;;;;;22.77;12.95;;;;;;;-140.66;100.00;55571.53;5150089;27;20058;-72
2023/06/29 04:56:07;;;;;;;25.60;14.20;;;;;;;-140.66;100.00;55571.53;5121636;27;20034;-72
2023/06/29 04:58:53;;;;;;;23.50;15.02;;;;;;;-140.66;100.00;55571.53;5121260;27;20095;-73
2023/06/29 05:01:38;;;;;;;26.20;14.77;;;;;;;-140.66;100.00;55571.53;5135884;27;20069;-72
2023/06/29 05:04:24;;;;;;;26.33;15.63;;;;;;;-140.66;100.00;55571.53;5136673;27;20023;-72
2023/06/29 05:07:10;;;;;;;31.02;17.85;;;;;;;-140.66;100.00;55571.53;5142869;27;20033;-73
2023/06/29 05:09:55;;;;;;;26.88;17.20;;;;;;;-140.66;100.00;55571.53;5148755;27;20027;-72
2023/06/29 05:12:41;;;;;;;28.67;18.45;;;;;;;-140.66;100.00;55571.53;5137436;27;20050;-72
2023/06/29 05:15:28;;;;;;;27.27;18.42;;;;;;;-140.66;100.00;55571.53;5136339;27;20054;-73
2023/06/29 05:18:14;;;;;;;38.33;19.38;;;;;;;-140.66;100.00;55571.53;5121820;27;20091;-72
2023/06/29 05:21:01;;;;;;;30.35;19.65;;;;;;;-140.66;100.00;55571.53;5135028;27;20110;-72
2023/06/29 05:23:47;;;;;;;39.45;22.38;;;;;;;-140.66;100.00;55571.53;5136071;27;20023;-73
2023/06/29 05:26:34;;;;;;;35.03;22.88;;;;;;;-140.66;100.00;55571.53;5135816;27;20501;-72
2023/06/29 05:29:20;;;;;;;38.55;22.20;;;;;;;-140.66;100.00;55571.53;5126883;27;20035;-72
2023/06/29 05:32:06;;;;;;;37.17;22.38;;;;;;;-140.66;100.00;55571.53;5121258;27;20102;-72
2023/06/29 05:34:51;;;;;;;39.08;23.77;;;;;;;-140.66;100.00;55571.53;5135675;27;20061;-72
2023/06/29 05:37:37;;;;;;;42.25;24.42;;;;;;;-140.66;100.00;55571.53;5135569;27;20389;-71
2023/06/29 05:40:23;;;;;;;40.83;24.27;;;;;;;-140.66;100.00;55571.53;5120563;27;20019;-71
2023/06/29 05:43:09;;;;;;;48.08;26.65;;;;;;;-140.66;100.00;55571.53;5135606;27;20038;-71
2023/06/29 05:45:54;;;;;;;47.05;28.90;;;;;;;-140.66;100.00;55571.53;5135507;27;20019;-72
2023/06/29 05:48:40;;;;;;;46.95;31.52;;;;;;;-140.66;100.00;55571.53;5135633;27;20031;-72
2023/06/29 05:51:26;;;;;;;47.75;30.15;;;;;;;-140.66;100.00;55571.53;5120715;27;20045;-73
2023/06/29 05:54:12;;;;;;;53.55;33.80;;;;;;;-140.66;100.00;55571.53;5135276;27;20441;-72
2023/06/29 05:56:58;;;;;;;52.58;35.05;;;;;;;-140.66;100.00;55571.53;5106743;27;20447;-72
2023/06/29 05:59:43;;;;;;;50.15;32.80;;;;;;;-140.66;100.00;55571.53;5135076;27;20023;-72
2023/06/29 06:02:29;;;;;;;51.40;34.17;;;;;;;-140.66;100.00;55571.53;5134795;27;20023;-71
2023/06/29 06:05:15;;;;;;;51.47;33.25;;;;;;;-140.66;100.00;55571.53;5119703;27;20034;-71
2023/06/29 06:08:01;;;;;;;54.28;37.30;;;;;;;-140.66;100.00;55571.53;5120125;27;20023;-71
2023/06/29 06:10:47;;;;;;;53.65;37.33;;;;;;;-140.66;100.00;55571.53;5134854;27;20525;-71
2023/06/29 06:13:33;;;;;;;56.42;37.13;;;;;;;-140.66;100.00;55571.53;5135352;27;20027;-72
2023/06/29 06:16:18;;;;;;;58.80;39.47;;;;;;;-140.66;100.00;55571.53;5120020;27;20023;-72
2023/06/29 06:19:05;;;;;;;60.30;41.28;;;;;;;-140.66;100.00;55571.53;5134682;27;20065;-70
2023/06/29 06:21:50;;;;;;;65.18;41.65;;;;;;;-140.66;100.00;55571.53;5135263;27;20106;-72
2023/06/29 06:24:37;;;;;;;54.28;40.08;;;;;;;-140.66;100.00;55571.53;5134648;27;20100;-72
2023/06/29 06:27:23;;;;;;;57.45;41.20;;;;;;;-140.66;100.00;55571.53;5135037;27;20019;-70
2023/06/29 06:30:09;;;;;;;57.15;39.45;;;;;;;-140.66;100.00;55571.53;5120035;27;20042;-71
2023/06/29 06:32:55;;;;;;;54.70;39.33;;;;;;;-140.66;100.00;55571.53;5118844;27;20019;-71
2023/06/29 06:35:41;;;;;;;57.33;40.15;;;;;;;-140.66;100.00;55571.53;5134623;27;20023;-71
2023/06/29 06:38:27;;;;;;;64.78;42.47;;;;;;;-140.66;100.00;55571.53;5134276;27;20036;-71
2023/06/29 06:41:12;;;;;;;68.68;44.15;;;;;;;-140.66;100.00;55571.53;5133191;27;20027;-72
2023/06/29 06:43:59;;;;;;;58.00;41.78;;;;;;;-140.66;100.00;55571.53;5134483;27;20075;-72
2023/06/29 06:46:44;;;;;;;64.72;41.97;;;;;;;-140.66;100.00;55571.53;5134335;27;20042;-72
2023/06/29 06:49:31;;;;;;;60.00;40.08;;;;;;;-140.66;100.00;55571.53;5133945;28;20027;-71
2023/06/29 06:52:17;;;;;;;65.70;44.47;;;;;;;-140.66;100.00;55571.53;5134343;28;20019;-70
2023/06/29 06:55:04;;;;;;;65.75;44.35;;;;;;;-140.66;100.00;55571.53;5133808;28;20037;-71
2023/06/29 06:57:50;;;;;;;60.20;44.17;;;;;;;-140.66;100.00;55571.53;5134829;28;20403;-71
2023/06/29 07:00:36;;;;;;;59.88;42.92;;;;;;;-140.66;100.00;55571.53;5134225;28;20035;-71
2023/06/29 07:03:21;;;;;;;62.00;43.97;;;;;;;-140.66;100.00;55571.53;5134519;28;20031;-71
2023/06/29 07:06:07;;;;;;;62.83;43.55;;;;;;;-140.66;100.00;55571.53;5134486;28;20027;-72
2023/06/29 07:08:53;;;;;;;60.60;42.78;;;;;;;-140.66;100.00;55571.53;5134381;28;20092;-72
2023/06/29 07:11:40;;;;;;;61.80;44.70;;;;;;;-140.66;100.00;55571.53;5134145;28;20045;-73
2023/06/29 07:14:26;;;;;;;58.08;42.70;;;;;;;-140.66;100.00;55571.53;5135580;28;20046;-73
2023/06/29 07:17:11;;;;;;;58.08;43.70;;;;;;;-140.66;100.00;55571.53;5147324;28;20026;-73
2023/06/29 07:19:57;;;;;;;57.72;42.13;;;;;;;-140.66;100.00;55571.53;5148352;28;20127;-73
2023/06/29 07:22:43;;;;;;;52.22;39.00;;;;;;;-140.66;100.00;55571.53;5120656;28;20030;-73
2023/06/29 07:25:29;;;;;;;53.88;38.30;;;;;;;-140.66;100.00;55571.53;5134421;28;20455;-74
2023/06/29 07:28:14;;;;;;;49.40;38.03;;;;;;;-140.66;100.00;55571.53;5119836;28;20360;-74
2023/06/29 07:31:04;;;;;;;48.25;35.85;;;;;;;-140.66;100.00;55571.53;5133779;28;20035;-69
2023/06/29 07:33:50;;;;;;;47.47;36.60;;;;;;;-140.66;100.00;55571.53;5134526;28;20028;-70
2023/06/29 07:36:36;;;;;;;51.03;36.80;;;;;;;-140.66;100.00;55571.53;5139863;28;20510;-71
2023/06/29 07:39:22;;;;;;;45.13;34.65;;;;;;;-140.66;100.00;55571.53;5134020;28;20056;-71
2023/06/29 07:42:08;;;;;;;45.10;31.42;;;;;;;-140.66;100.00;55571.53;5120458;28;20035;-72
2023/06/29 07:44:54;;;;;;;41.50;33.28;;;;;;;-140.66;100.00;55571.53;5131686;27;20106;-72
2023/06/29 07:47:41;;;;;;;40.67;33.08;;;;;;;-140.66;100.00;55571.53;5134211;27;20468;-71
2023/06/29 07:50:26;;;;;;;41.45;32.88;;;;;;;-140.66;100.00;55571.53;5143305;27;20031;-71
2023/06/29 07:53:12;;;;;;;37.88;29.45;;;;;;;-140.66;100.00;55571.53;5137262;27;20035;-71
2023/06/29 07:55:59;;;;;;;38.40;29.77;;;;;;;-140.66;100.00;55571.53;5137761;27;20042;-70
2023/06/29 07:58:45;;;;;;;41.47;29.45;;;;;;;-140.66;100.00;55571.53;5137158;27;20023;-70
2023/06/29 08:01:34;;;;;;;36.33;27.17;;;;;;;-140.66;100.00;55571.53;5138254;27;20062;-71
2023/06/29 08:04:19;;;;;;;29.17;23.52;;;;;;;-140.66;100.00;55571.53;5137401;27;20042;-71
2023/06/29 08:07:06;;;;;;;27.67;22.25;;;;;;;-140.66;100.00;55571.53;5137212;27;20030;-71
2023/06/29 08:09:52;;;;;;;29.13;22.20;;;;;;;-140.66;100.00;55571.53;5136466;27;20070;-71
2023/06/29 08:12:37;;;;;;;26.48;20.65;;;;;;;-140.66;100.00;55571.53;5137464;27;20345;-72
2023/06/29 08:15:23;;;;;;;25.55;20.23;;;;;;;-140.66;100.00;55571.53;5139001;27;20532;-72
2023/06/29 08:18:09;;;;;;;25.10;18.80;;;;;;;-140.66;100.00;55571.53;5137116;27;20023;-71
2023/06/29 08:20:55;;;;;;;26.38;20.30;;;;;;;-140.66;100.00;55571.53;5136806;27;20038;-71
2023/06/29 08:23:40;;;;;;;26.33;20.88;;;;;;;-140.66;100.00;55571.53;5121756;27;20031;-72
2023/06/29 08:26:26;;;;;;;29.75;20.00;;;;;;;-140.66;100.00;55571.53;5137119;27;20031;-72
2023/06/29 08:29:12;;;;;;;25.23;19.85;;;;;;;-140.66;100.00;55571.53;5136283;27;20147;-72
2023/06/29 08:31:58;;;;;;;23.05;19.67;;;;;;;-140.66;100.00;55571.53;5137261;27;20046;-71
2023/06/29 08:34:43;;;;;;;24.02;18.45;;;;;;;-140.66;100.00;55571.53;5138767;27;20027;-70
2023/06/29 08:37:29;;;;;;;25.30;17.80;;;;;;;-140.66;100.00;55571.53;5136653;27;20087;-71
2023/06/29 08:40:18;;;;;;;25.42;17.60;;;;;;;-140.66;100.00;55571.53;5128313;27;20015;-71
2023/06/29 08:43:04;;;;;;;20.23;16.50;;;;;;;-140.66;100.00;55571.53;5136771;27;20170;-72
2023/06/29 08:45:50;;;;;;;21.30;14.38;;;;;;;-140.66;100.00;55571.53;5121339;27;20029;-71
2023/06/29 08:48:37;;;;;;;18.48;14.73;;;;;;;-140.66;100.00;55571.53;5137139;27;20453;-72
2023/06/29 08:51:24;;;;;;;16.75;13.90;;;;;;;-140.66;100.00;55571.53;5136864;27;20019;-71
2023/06/29 08:54:12;;;;;;;17.67;15.07;;;;;;;-140.66;100.00;55571.53;5120595;27;20027;-71
2023/06/29 08:57:00;;;;;;;21.13;14.77;;;;;;;-140.66;100.00;55571.53;5136104;27;20062;-72
2023/06/29 08:59:48;;;;;;;20.75;14.10;;;;;;;-140.66;100.00;55571.53;5135634;27;20019;-71
2023/06/29 09:02:35;;;;;;;16.70;13.27;;;;;;;-140.66;100.00;55571.53;5131468;27;20309;-71
2023/06/29 09:05:22;;;;;;;19.33;13.73;;;;;;;-140.66;100.00;55571.53;5106274;27;20027;-71
2023/06/29 09:08:07;;;;;;;13.70;12.27;;;;;;;-140.66;100.00;55571.53;5135760;27;20151;-72
2023/06/29 09:10:54;;;;;;;18.17;12.93;;;;;;;-140.66;100.00;55571.53;5134840;27;20459;-70
2023/06/29 09:13:40;;;;;;;15.98;13.25;;;;;;;-140.66;100.00;55571.53;5135975;27;20031;-72
2023/06/29 09:16:28;;;;;;;16.27;12.98;;;;;;;-140.66;100.00;55571.53;5136195;27;20418;-72
2023/06/29 09:19:14;;;;;;;15.23;12.60;;;;;;;-140.66;100.00;55571.53;5122105;27;20051;-72
2023/06/29 09:22:00;;;;;;;19.05;12.68;;;;;;;-140.66;100.00;55571.53;5135534;27;20318;-71
2023/06/29 09:24:46;;;;;;;24.60;11.85;;;;;;;-140.66;100.00;55571.53;5122123;27;20034;-71
2023/06/29 09:27:34;;;;;;;14.15;11.55;;;;;;;-140.66;100.00;55571.53;5120469;27;20072;-72
2023/06/29 09:30:20;;;;;;;15.38;12.75;;;;;;;-140.66;100.00;55571.53;5120759;27;20035;-71
2023/06/29 09:33:11;;;;;;;19.90;12.65;;;;;;;-140.66;100.00;55571.53;5127696;27;20035;-70
2023/06/29 09:36:05;;;;;;;13.57;10.90;;;;;;;-140.66;100.00;55571.53;5100635;28;20027;-70
2023/06/29 09:38:52;;;;;;;13.00;11.63;;;;;;;-140.66;100.00;55571.53;5116561;28;20029;-71
2023/06/29 09:41:48;;;;;;;14.75;11.82;;;;;;;-140.66;100.00;55571.53;5114861;28;20051;-70
2023/06/29 09:44:36;;;;;;;15.45;12.38;;;;;;;-140.66;100.00;55571.53;5122779;27;20102;-71
2023/06/29 09:47:23;;;;;;;13.40;11.98;;;;;;;-140.66;100.00;55571.53;5135154;27;20094;-70
2023/06/29 09:50:23;;;;;;;13.43;11.80;;;;;;;-140.66;100.00;55571.53;5134254;27;20023;-70
2023/06/29 09:53:13;;;;;;;12.70;11.10;;;;;;;-140.66;100.00;55571.53;5135157;27;20039;-71
2023/06/29 09:56:00;;;;;;;20.75;11.35;;;;;;;-140.66;100.00;55571.53;5125608;27;20368;-70
2023/06/29 09:58:48;;;;;;;13.35;11.52;;;;;;;-140.66;100.00;55571.53;5141146;27;20463;-72
2023/06/29 10:01:35;;;;;;;14.80;10.77;;;;;;;-140.66;100.00;55571.53;5145582;27;20031;-71
2023/06/29 10:04:21;;;;;;;11.43;9.48;;;;;;;-140.66;100.00;55571.53;5134954;27;20515;-71
2023/06/29 10:07:16;;;;;;;13.20;9.07;;;;;;;-140.66;100.00;55571.53;5134286;27;20027;-71
2023/06/29 10:10:05;;;;;;;12.63;9.50;;;;;;;-140.66;100.00;55571.53;5134544;27;20095;-72
2023/06/29 10:12:57;;;;;;;13.20;8.82;;;;;;;-140.66;100.00;55571.53;5135337;27;20075;-71
2023/06/29 10:15:43;;;;;;;12.15;8.38;;;;;;;-140.66;100.00;55571.53;5134653;27;20015;-71
2023/06/29 10:18:36;;;;;;;11.82;7.70;;;;;;;-140.66;100.00;55571.53;5135081;27;20054;-71
2023/06/29 10:21:23;;;;;;;8.07;7.03;;;;;;;-140.66;100.00;55571.53;5135602;27;20023;-72
2023/06/29 10:24:13;;;;;;;8.40;7.20;;;;;;;-140.66;100.00;55571.53;5118886;27;20087;-72
2023/06/29 10:27:01;;;;;;;11.48;7.32;;;;;;;-140.66;100.00;55571.53;5120996;27;20400;-73
2023/06/29 10:29:50;;;;;;;9.00;7.05;;;;;;;-140.66;100.00;55571.53;5134069;27;20027;-71
2023/06/29 10:32:38;;;;;;;7.50;6.30;;;;;;;-140.66;100.00;55571.53;5134683;27;20027;-72
2023/06/29 10:35:27;;;;;;;7.20;6.10;;;;;;;-140.66;100.00;55571.53;5134155;27;20421;-72
2023/06/29 10:38:13;;;;;;;8.10;6.85;;;;;;;-140.66;100.00;55571.53;5125610;27;20016;-73
2023/06/29 10:40:59;;;;;;;14.07;6.40;;;;;;;-140.66;100.00;55571.53;5134269;27;20055;-72
2023/06/29 10:44:04;;;;;;;10.90;6.00;;;;;;;-140.66;100.00;55571.53;5134398;27;20118;-72
2023/06/29 10:46:51;;;;;;;6.57;5.68;;;;;;;-140.66;100.00;55571.53;5135001;27;20445;-73
2023/06/29 10:49:36;;;;;;;7.75;6.22;;;;;;;-140.66;100.00;55571.53;5119735;28;20023;-72
2023/06/29 10:52:24;;;;;;;6.75;5.38;;;;;;;-140.66;100.00;55571.53;5133578;28;20465;-74
2023/06/29 10:55:17;;;;;;;6.95;4.75;;;;;;;-140.66;100.00;55571.53;5134626;28;20060;-73
2023/06/29 10:58:35;;;;;;;6.68;4.57;;;;;;;-140.66;100.00;55571.53;5120430;28;20027;-76
2023/06/29 11:01:21;;;;;;;7.38;5.05;;;;;;;-140.66;100.00;55571.53;5134777;28;20023;-77
2023/06/29 11:04:07;;;;;;;5.70;4.57;;;;;;;-140.66;100.00;55571.53;5133999;28;20096;-77
2023/06/29 11:06:53;;;;;;;7.65;4.90;;;;;;;-140.66;100.00;55571.53;5134815;28;20047;-76
2023/06/29 11:09:38;;;;;;;7.60;5.35;;;;;;;-140.66;100.00;55571.53;5134023;28;20125;-77
2023/06/29 11:12:24;;;;;;;10.25;4.75;;;;;;;-140.66;100.00;55571.53;5133879;28;20046;-76
2023/06/29 11:15:17;;;;;;;9.63;4.93;;;;;;;-140.66;100.00;55571.53;5120068;28;20027;-77
2023/06/29 11:18:08;;;;;;;6.90;4.55;;;;;;;-140.66;100.00;55571.53;5136494;28;20472;-77
2023/06/29 11:20:54;;;;;;;15.40;4.57;;;;;;;-140.66;100.00;55571.53;5143313;28;20042;-77
2023/06/29 11:23:49;;;;;;;5.60;4.97;;;;;;;-140.66;100.00;55571.53;5134576;28;20023;-77
2023/06/29 11:26:35;;;;;;;7.28;5.00;;;;;;;-140.66;100.00;55571.53;5139505;27;20106;-78
2023/06/29 11:29:21;;;;;;;11.85;4.45;;;;;;;-140.66;100.00;55571.53;5118570;27;20197;-77
2023/06/29 11:32:12;;;;;;;11.77;5.10;;;;;;;-140.66;100.00;55571.53;5138225;27;20015;-77
2023/06/29 11:35:00;;;;;;;12.38;4.45;;;;;;;-140.66;100.00;55571.53;5124937;27;20047;-76
2023/06/29 11:37:46;;;;;;;10.55;4.70;;;;;;;-140.66;100.00;55571.53;5138652;27;20072;-77
2023/06/29 11:40:31;;;;;;;10.15;4.97;;;;;;;-140.66;100.00;55571.53;5139002;27;20433;-77
2023/06/29 11:43:17;;;;;;;5.32;4.00;;;;;;;-140.66;100.00;55571.53;5138368;27;20035;-77
2023/06/29 11:46:03;;;;;;;5.30;4.20;;;;;;;-140.66;100.00;55571.53;5117914;27;20066;-76
2023/06/29 11:48:55;;;;;;;6.32;4.00;;;;;;;-140.66;100.00;55571.53;5137862;27;20099;-77
2023/06/29 11:51:42;;;;;;;7.82;3.92;;;;;;;-140.66;100.00;55571.53;5136681;27;20517;-77
2023/06/29 11:54:29;;;;;;;7.70;3.90;;;;;;;-140.66;100.00;55571.53;5123980;27;20038;-77
2023/06/29 11:57:18;;;;;;;5.28;3.72;;;;;;;-140.66;100.00;55571.53;5136699;27;20034;-77
2023/06/29 12:00:09;;;;;;;4.93;3.65;;;;;;;-140.66;100.00;55571.53;5141230;27;20074;-77
2023/06/29 12:02:55;;;;;;;6.95;3.72;;;;;;;-140.66;100.00;55571.53;5136390;27;20028;-77
2023/06/29 12:05:41;;;;;;;3.70;3.40;;;;;;;-140.66;100.00;55571.53;5137774;27;20395;-78
2023/06/29 12:08:39;;;;;;;8.02;3.72;;;;;;;-140.66;100.00;55571.53;5122623;27;20110;-78
2023/06/29 12:11:26;;;;;;;4.63;3.75;;;;;;;-140.66;100.00;55571.53;5122209;27;20054;-77
2023/06/29 12:14:12;;;;;;;7.18;3.17;;;;;;;-140.66;100.00;55571.53;5123063;27;20031;-77
2023/06/29 12:17:00;;;;;;;6.28;3.40;;;;;;;-140.66;100.00;55571.53;5137878;27;20038;-77
2023/06/29 12:19:51;;;;;;;5.18;3.30;;;;;;;-140.66;100.00;55571.53;5122069;27;20484;-78
2023/06/29 12:22:38;;;;;;;4.95;3.10;;;;;;;-140.66;100.00;55571.53;5137254;27;20035;-77
2023/06/29 12:25:23;;;;;;;7.22;3.67;;;;;;;-140.66;100.00;55571.53;5116651;27;20023;-77